createdAt,value
2023-02-25T00:00:38.262Z,45.80
2023-02-25T00:03:06.388Z,44.80
2023-02-25T00:05:39.779Z,43.86
2023-02-25T00:08:07.898Z,45.57
2023-02-25T00:10:35.914Z,44.40
2023-02-25T00:13:17.363Z,45.14
2023-02-25T00:15:45.873Z,43.86
2023-02-25T00:18:13.854Z,45.49
2023-02-25T00:20:43.943Z,44.62
2023-02-25T00:23:11.813Z,46.48
2023-02-25T00:25:39.750Z,44.50
2023-02-25T00:28:07.989Z,46.24
2023-02-25T00:30:36.195Z,46.39
2023-02-25T00:33:05.551Z,48.06
2023-02-25T00:35:34.290Z,50.93
2023-02-25T00:38:15.277Z,52.50
2023-02-25T00:40:44.450Z,53.71
2023-02-25T00:43:12.457Z,54.34
2023-02-25T00:45:40.998Z,56.29
2023-02-25T00:48:09.039Z,56.50
2023-02-25T00:50:39.625Z,59.61
2023-02-25T00:53:09.078Z,61.02
2023-02-25T00:55:37.374Z,66.38
2023-02-25T00:58:05.882Z,64.56
2023-02-25T01:00:43.402Z,70.66
2023-02-25T01:03:19.492Z,69.32
2023-02-25T01:05:50.930Z,71.45
2023-02-25T01:08:20.755Z,70.68
2023-02-25T01:10:49.092Z,72.59
2023-02-25T01:13:17.151Z,70.93
2023-02-25T01:15:45.516Z,72.04
2023-02-25T01:18:13.528Z,74.09
2023-02-25T01:20:41.608Z,72.92
2023-02-25T01:23:09.634Z,75.92
2023-02-25T01:25:42.159Z,74.72
2023-02-25T01:28:10.139Z,74.34
2023-02-25T01:30:38.581Z,74.63
2023-02-25T01:33:06.721Z,74.99
2023-02-25T01:35:36.630Z,72.75
2023-02-25T01:38:04.545Z,75.03
2023-02-25T01:40:32.867Z,77.55
2023-02-25T01:43:02.261Z,81.66
2023-02-25T01:45:31.854Z,82.55
2023-02-25T01:48:07.065Z,81.99
2023-02-25T01:50:41.383Z,81.07
2023-02-25T01:53:09.889Z,78.75
2023-02-25T01:55:38.151Z,76.89
2023-02-25T01:58:07.529Z,75.57
2023-02-25T02:00:35.581Z,70.78
2023-02-25T02:03:04.036Z,70.05
2023-02-25T02:05:39.559Z,69.36
2023-02-25T02:08:07.530Z,67.47
2023-02-25T02:10:35.589Z,66.30
2023-02-25T02:13:03.655Z,61.07
2023-02-25T02:15:33.360Z,58.57
2023-02-25T02:18:02.084Z,57.50
2023-02-25T02:20:31.788Z,57.79
2023-02-25T02:23:10.306Z,57.74
2023-02-25T02:26:15.915Z,59.75
2023-02-25T02:29:19.760Z,60.81
2023-02-25T02:32:08.488Z,63.33
2023-02-25T02:34:41.057Z,61.58
2023-02-25T02:37:16.454Z,62.51
2023-02-25T02:39:51.109Z,61.95
2023-02-25T02:42:21.420Z,61.97
2023-02-25T02:44:52.526Z,65.03
2023-02-25T02:47:24.091Z,65.08
2023-02-25T02:49:54.327Z,65.54
2023-02-25T02:52:24.242Z,69.70
2023-02-25T02:54:54.919Z,73.69
2023-02-25T02:57:22.999Z,72.99
2023-02-25T02:59:53.005Z,74.56
2023-02-25T03:02:23.951Z,72.82
2023-02-25T03:04:54.851Z,74.32
2023-02-25T03:07:23.027Z,68.91
2023-02-25T03:09:52.012Z,69.21
2023-02-25T03:12:19.946Z,67.10
2023-02-25T03:14:48.736Z,67.54
2023-02-25T03:17:18.043Z,66.99
2023-02-25T03:19:48.926Z,66.56
2023-02-25T03:22:18.222Z,62.39
2023-02-25T03:24:49.588Z,60.10
2023-02-25T03:27:26.009Z,58.72
2023-02-25T03:29:54.018Z,59.35
2023-02-25T03:32:22.060Z,59.15
2023-02-25T03:34:51.440Z,62.27
2023-02-25T03:37:21.943Z,63.28
2023-02-25T03:39:52.788Z,60.65
2023-02-25T03:42:21.870Z,61.35
2023-02-25T03:44:51.671Z,59.33
2023-02-25T03:47:19.692Z,57.95
2023-02-25T03:49:49.525Z,59.30
2023-02-25T03:52:21.028Z,57.22
2023-02-25T03:54:51.451Z,53.82
2023-02-25T03:57:19.505Z,53.41
2023-02-25T03:59:47.585Z,51.90
2023-02-25T04:02:15.509Z,50.11
2023-02-25T04:04:43.720Z,48.38
2023-02-25T04:07:11.779Z,46.50
2023-02-25T04:09:41.415Z,44.92
2023-02-25T04:12:09.740Z,42.85
2023-02-25T04:14:37.659Z,39.27
2023-02-25T04:17:06.319Z,38.69
2023-02-25T04:19:34.356Z,39.89
2023-02-25T04:22:02.468Z,39.28
2023-02-25T04:24:30.695Z,37.52
2023-02-25T04:27:01.710Z,35.63
2023-02-25T04:29:30.360Z,35.67
2023-02-25T04:31:58.771Z,33.41
2023-02-25T04:34:26.876Z,34.29
2023-02-25T04:36:55.101Z,34.10
2023-02-25T04:39:23.015Z,33.85
2023-02-25T04:41:50.989Z,34.58
2023-02-25T04:44:20.384Z,34.63
2023-02-25T04:46:51.842Z,35.48
2023-02-25T04:49:20.427Z,34.81
2023-02-25T04:51:49.454Z,40.33
2023-02-25T04:54:18.490Z,39.08
2023-02-25T04:56:46.485Z,40.56
2023-02-25T04:59:14.498Z,42.18
2023-02-25T05:01:44.154Z,43.59
2023-02-25T05:04:12.139Z,43.16
2023-02-25T05:06:40.378Z,44.17
2023-02-25T05:09:10.283Z,43.64
2023-02-25T05:11:38.400Z,45.95
2023-02-25T05:14:06.840Z,49.76
2023-02-25T05:16:34.881Z,50.79
2023-02-25T05:19:04.348Z,50.96
2023-02-25T05:21:32.720Z,54.36
2023-02-25T05:24:00.662Z,55.71
2023-02-25T05:26:28.630Z,57.37
2023-02-25T05:28:57.531Z,59.65
2023-02-25T05:31:26.153Z,64.63
2023-02-25T05:33:54.313Z,67.02
2023-02-25T05:36:27.494Z,65.69
2023-02-25T05:38:56.176Z,66.49
2023-02-25T05:41:24.176Z,68.42
2023-02-25T05:43:52.118Z,72.92
2023-02-25T05:46:20.221Z,78.07
2023-02-25T05:48:48.980Z,79.39
2023-02-25T05:51:18.013Z,84.55
2023-02-25T05:53:48.103Z,88.56
2023-02-25T05:56:17.061Z,89.26
2023-02-25T05:58:46.749Z,90.85
2023-02-25T06:01:16.343Z,92.44
2023-02-25T06:03:44.752Z,93.78
2023-02-25T06:06:14.768Z,94.66
2023-02-25T06:08:44.335Z,94.42
2023-02-25T06:11:15.382Z,95.65
2023-02-25T06:13:43.289Z,95.73
2023-02-25T06:16:11.523Z,97.79
2023-02-25T06:18:39.755Z,100.00
2023-02-25T06:21:08.554Z,100.00
2023-02-25T06:23:36.717Z,99.01
2023-02-25T06:26:05.029Z,97.70
2023-02-25T06:28:34.636Z,100.00
2023-02-25T06:31:03.123Z,100.00
2023-02-25T06:33:31.947Z,100.00
2023-02-25T06:36:00.046Z,100.00
2023-02-25T06:38:28.152Z,100.00
2023-02-25T06:40:56.392Z,100.00
2023-02-25T06:43:24.279Z,100.00
2023-02-25T06:45:53.615Z,100.00
2023-02-25T06:48:21.857Z,100.00
2023-02-25T06:50:50.300Z,100.00
2023-02-25T06:53:18.633Z,100.00
2023-02-25T06:55:46.690Z,100.00
2023-02-25T06:58:15.673Z,100.00
2023-02-25T07:00:43.641Z,100.00
2023-02-25T07:03:13.866Z,100.00
2023-02-25T07:05:41.797Z,100.00
2023-02-25T07:08:09.794Z,100.00
2023-02-25T07:10:40.551Z,100.00
2023-02-25T07:13:08.514Z,100.00
2023-02-25T07:15:36.703Z,100.00
2023-02-25T07:18:05.133Z,100.00
2023-02-25T07:20:34.467Z,100.00
2023-02-25T07:23:04.103Z,100.00
2023-02-25T07:25:32.337Z,100.00
2023-02-25T07:28:00.291Z,100.00
2023-02-25T07:30:28.232Z,100.00
2023-02-25T07:32:56.986Z,100.00
2023-02-25T07:35:25.024Z,100.00
2023-02-25T07:37:54.447Z,100.00
2023-02-25T07:40:22.616Z,100.00
2023-02-25T07:42:50.953Z,100.00
2023-02-25T07:45:19.210Z,100.00
2023-02-25T07:47:47.155Z,100.00
2023-02-25T07:50:15.108Z,100.00
2023-02-25T07:52:43.018Z,100.00
2023-02-25T07:55:13.155Z,100.00
2023-02-25T07:57:41.192Z,100.00
2023-02-25T08:00:11.593Z,100.00
2023-02-25T08:02:40.050Z,100.00
2023-02-25T08:05:08.739Z,100.00
2023-02-25T08:07:36.649Z,100.00
2023-02-25T08:10:05.403Z,100.00
2023-02-25T08:12:35.292Z,100.00
2023-02-25T08:15:03.387Z,100.00
2023-02-25T08:17:32.596Z,100.00
2023-02-25T08:20:00.485Z,100.00
2023-02-25T08:22:28.421Z,100.00
2023-02-25T08:24:56.299Z,100.00
2023-02-25T08:27:24.196Z,100.00
2023-02-25T08:29:53.517Z,100.00
2023-02-25T08:32:22.900Z,100.00
2023-02-25T08:34:52.169Z,99.50
2023-02-25T08:37:21.540Z,95.63
2023-02-25T08:39:49.704Z,89.59
2023-02-25T08:42:19.021Z,83.79
2023-02-25T08:44:46.920Z,81.52
2023-02-25T08:47:16.398Z,76.43
2023-02-25T08:49:44.342Z,74.26
2023-02-25T08:52:14.009Z,72.24
2023-02-25T08:54:42.435Z,68.80
2023-02-25T08:57:10.382Z,65.54
2023-02-25T08:59:38.981Z,64.27
2023-02-25T09:02:07.432Z,61.84
2023-02-25T09:04:36.865Z,58.50
2023-02-25T09:07:04.819Z,58.95
2023-02-25T09:09:34.142Z,55.19
2023-02-25T09:12:05.074Z,55.90
2023-02-25T09:14:33.587Z,58.34
2023-02-25T09:17:02.293Z,59.79
2023-02-25T09:19:30.339Z,60.63
2023-02-25T09:21:59.694Z,61.18
2023-02-25T09:24:30.040Z,65.81
2023-02-25T09:26:58.067Z,73.31
2023-02-25T09:29:26.080Z,76.99
2023-02-25T09:31:55.147Z,81.43
2023-02-25T09:34:23.295Z,88.93
2023-02-25T09:36:51.311Z,97.12
2023-02-25T09:39:20.978Z,98.79
2023-02-25T09:41:53.367Z,100.00
2023-02-25T09:44:23.832Z,100.00
2023-02-25T09:46:53.435Z,100.00
2023-02-25T09:49:27.083Z,100.00
2023-02-25T09:51:59.150Z,100.00
2023-02-25T09:54:31.119Z,100.00
2023-02-25T09:57:00.419Z,100.00
2023-02-25T09:59:28.970Z,100.00
2023-02-25T10:01:58.231Z,100.00
2023-02-25T10:04:32.160Z,100.00
2023-02-25T10:07:04.571Z,100.00
2023-02-25T10:09:39.427Z,100.00
2023-02-25T10:12:13.909Z,100.00
2023-02-25T10:14:55.954Z,100.00
2023-02-25T10:17:27.347Z,100.00
2023-02-25T10:20:09.414Z,100.00
2023-02-25T10:22:43.519Z,100.00
2023-02-25T10:25:14.912Z,100.00
2023-02-25T10:27:44.887Z,100.00
2023-02-25T10:30:15.773Z,100.00
2023-02-25T10:32:44.165Z,100.00
2023-02-25T10:35:20.592Z,100.00
2023-02-25T10:37:48.860Z,100.00
2023-02-25T10:40:19.878Z,100.00
2023-02-25T10:42:49.260Z,100.00
2023-02-25T10:45:21.494Z,100.00
2023-02-25T10:47:52.408Z,100.00
2023-02-25T10:50:38.954Z,100.00
2023-02-25T10:53:14.675Z,100.00
2023-02-25T10:55:52.092Z,100.00
2023-02-25T10:58:34.637Z,100.00
2023-02-25T11:01:05.634Z,100.00
2023-02-25T11:03:35.429Z,100.00
2023-02-25T11:06:11.026Z,100.00
2023-02-25T11:08:39.100Z,100.00
2023-02-25T11:11:20.768Z,100.00
2023-02-25T11:14:02.037Z,100.00
2023-02-25T11:16:30.641Z,100.00
2023-02-25T11:18:59.749Z,100.00
2023-02-25T11:21:33.003Z,100.00
2023-02-25T11:24:02.814Z,100.00
2023-02-25T11:26:34.123Z,100.00
2023-02-25T11:29:03.534Z,100.00
2023-02-25T11:31:37.827Z,100.00
2023-02-25T11:34:09.533Z,100.00
2023-02-25T11:36:39.012Z,100.00
2023-02-25T11:39:15.192Z,100.00
2023-02-25T11:41:44.815Z,100.00
2023-02-25T11:44:20.817Z,100.00
2023-02-25T11:46:51.895Z,100.00
2023-02-25T11:49:21.838Z,100.00
2023-02-25T11:51:52.074Z,100.00
2023-02-25T11:54:26.019Z,100.00
2023-02-25T11:56:57.349Z,100.00
2023-02-25T11:59:31.913Z,100.00
2023-02-25T12:02:16.867Z,100.00
2023-02-25T12:04:53.349Z,100.00
2023-02-25T12:08:12.465Z,100.00
2023-02-25T12:11:14.190Z,100.00
2023-02-25T12:14:23.987Z,100.00
2023-02-25T12:17:27.238Z,100.00
2023-02-25T12:20:30.415Z,100.00
2023-02-25T12:23:30.618Z,100.00
2023-02-25T12:26:01.656Z,100.00
2023-02-25T12:28:51.616Z,100.00
2023-02-25T12:31:36.833Z,100.00
2023-02-25T12:34:29.568Z,100.00
2023-02-25T12:37:07.151Z,100.00
2023-02-25T12:39:59.180Z,100.00
2023-02-25T12:42:38.781Z,100.00
2023-02-25T12:45:22.395Z,100.00
2023-02-25T12:48:13.341Z,100.00
2023-02-25T12:50:48.436Z,100.00
2023-02-25T12:53:23.490Z,100.00
2023-02-25T12:56:03.752Z,100.00
2023-02-25T12:58:41.127Z,100.00
2023-02-25T13:01:33.819Z,100.00
2023-02-25T13:04:14.501Z,100.00
2023-02-25T13:07:04.056Z,100.00
2023-02-25T13:09:48.254Z,100.00
2023-02-25T13:12:27.907Z,100.00
2023-02-25T13:15:00.424Z,100.00
2023-02-25T13:18:04.219Z,100.00
2023-02-25T13:20:44.362Z,100.00
2023-02-25T13:23:39.863Z,100.00
2023-02-25T13:26:24.713Z,100.00
2023-02-25T13:29:14.317Z,100.00
2023-02-25T13:31:46.722Z,100.00
2023-02-25T13:34:21.364Z,100.00
2023-02-25T13:37:12.162Z,100.00
2023-02-25T13:39:55.195Z,100.00
2023-02-25T13:42:37.330Z,100.00
2023-02-25T13:45:37.323Z,100.00
2023-02-25T13:48:24.031Z,100.00
2023-02-25T13:50:56.825Z,100.00
2023-02-25T13:53:37.751Z,100.00
2023-02-25T13:56:12.186Z,100.00
2023-02-25T13:58:50.685Z,100.00
2023-02-25T14:01:37.009Z,100.00
2023-02-25T14:04:25.751Z,100.00
2023-02-25T14:07:12.279Z,100.00
2023-02-25T14:09:44.212Z,100.00
2023-02-25T14:12:17.501Z,100.00
2023-02-25T14:15:09.872Z,100.00
2023-02-25T14:18:13.314Z,100.00
2023-02-25T14:20:46.931Z,100.00
2023-02-25T14:23:17.305Z,100.00
2023-02-25T14:25:56.406Z,100.00
2023-02-25T14:28:28.468Z,100.00
2023-02-25T14:31:03.269Z,100.00
2023-02-25T14:33:48.157Z,100.00
2023-02-25T14:36:28.115Z,100.00
2023-02-25T14:39:14.487Z,100.00
2023-02-25T14:41:52.480Z,100.00
2023-02-25T14:44:25.685Z,100.00
2023-02-25T14:46:55.797Z,100.00
2023-02-25T14:49:26.788Z,100.00
2023-02-25T14:52:19.855Z,100.00
2023-02-25T14:55:15.213Z,100.00
2023-02-25T14:58:09.317Z,100.00
2023-02-25T15:01:12.264Z,100.00
2023-02-25T15:04:15.938Z,100.00
2023-02-25T15:06:51.733Z,100.00
2023-02-25T15:09:35.701Z,100.00
2023-02-25T15:12:17.883Z,100.00
2023-02-25T15:15:34.618Z,100.00
2023-02-25T15:18:28.988Z,100.00
2023-02-25T15:20:57.489Z,100.00
2023-02-25T15:23:42.585Z,100.00
2023-02-25T15:26:22.324Z,100.00
2023-02-25T15:28:50.865Z,100.00
2023-02-25T15:31:39.096Z,100.00
2023-02-25T15:34:39.085Z,100.00
2023-02-25T15:37:28.236Z,100.00
2023-02-25T15:39:56.839Z,100.00
2023-02-25T15:42:47.987Z,100.00
2023-02-25T15:45:39.526Z,100.00
2023-02-25T15:48:34.561Z,100.00
2023-02-25T15:51:06.332Z,100.00
2023-02-25T15:53:48.143Z,100.00
2023-02-25T15:56:47.498Z,100.00
2023-02-25T15:59:42.919Z,100.00
2023-02-25T16:02:39.879Z,100.00
2023-02-25T16:05:25.684Z,100.00
2023-02-25T16:08:06.546Z,100.00
2023-02-25T16:10:41.926Z,100.00
2023-02-25T16:13:14.525Z,100.00
2023-02-25T16:15:45.252Z,100.00
2023-02-25T16:18:16.900Z,100.00
2023-02-25T16:20:47.410Z,100.00
2023-02-25T16:23:16.856Z,100.00
2023-02-25T16:25:49.736Z,100.00
2023-02-25T16:28:20.738Z,100.00
2023-02-25T16:30:51.239Z,100.00
2023-02-25T16:33:22.042Z,100.00
2023-02-25T16:35:55.346Z,100.00
2023-02-25T16:38:32.123Z,100.00
2023-02-25T16:41:00.566Z,100.00
2023-02-25T16:43:29.671Z,100.00
2023-02-25T16:45:58.316Z,100.00
2023-02-25T16:48:29.862Z,100.00
2023-02-25T16:50:57.742Z,100.00
2023-02-25T16:53:26.785Z,100.00
2023-02-25T16:56:00.179Z,100.00
2023-02-25T16:58:29.153Z,100.00
2023-02-25T17:00:58.417Z,100.00
2023-02-25T17:03:27.264Z,100.00
2023-02-25T17:06:06.321Z,100.00
2023-02-25T17:08:34.401Z,100.00
2023-02-25T17:11:04.999Z,100.00
2023-02-25T17:13:33.504Z,100.00
2023-02-25T17:16:04.004Z,100.00
2023-02-25T17:18:32.828Z,100.00
2023-02-25T17:21:03.216Z,100.00
2023-02-25T17:23:31.335Z,100.00
2023-02-25T17:25:59.272Z,100.00
2023-02-25T17:28:30.266Z,100.00
2023-02-25T17:31:06.695Z,100.00
2023-02-25T17:33:34.765Z,100.00
2023-02-25T17:36:06.223Z,100.00
2023-02-25T17:38:34.299Z,100.00
2023-02-25T17:41:02.328Z,100.00
2023-02-25T17:43:36.461Z,100.00
2023-02-25T17:46:05.356Z,100.00
2023-02-25T17:48:43.462Z,100.00
2023-02-25T17:51:15.414Z,100.00
2023-02-25T17:53:45.323Z,100.00
2023-02-25T17:56:22.599Z,100.00
2023-02-25T17:58:52.287Z,100.00
2023-02-25T18:01:23.532Z,100.00
2023-02-25T18:03:52.902Z,100.00
2023-02-25T18:06:33.333Z,100.00
2023-02-25T18:09:02.912Z,100.00
2023-02-25T18:11:32.851Z,100.00
2023-02-25T18:14:03.612Z,100.00
2023-02-25T18:16:43.222Z,100.00
2023-02-25T18:19:33.073Z,100.00
2023-02-25T18:22:01.080Z,100.00
2023-02-25T18:24:33.317Z,100.00
2023-02-25T18:27:24.633Z,100.00
2023-02-25T18:29:54.451Z,100.00
2023-02-25T18:32:22.455Z,100.00
2023-02-25T18:34:50.935Z,100.00
2023-02-25T18:37:20.579Z,100.00
2023-02-25T18:39:48.745Z,100.00
2023-02-25T18:42:17.944Z,100.00
2023-02-25T18:44:46.608Z,100.00
2023-02-25T18:47:16.866Z,100.00
2023-02-25T18:49:46.229Z,100.00
2023-02-25T18:52:19.387Z,100.00
2023-02-25T18:54:48.050Z,100.00
2023-02-25T18:57:21.821Z,100.00
2023-02-25T18:59:50.402Z,100.00
2023-02-25T19:02:25.594Z,100.00
2023-02-25T19:04:55.697Z,100.00
2023-02-25T19:07:25.656Z,100.00
2023-02-25T19:09:54.243Z,100.00
2023-02-25T19:12:26.157Z,100.00
2023-02-25T19:14:57.030Z,100.00
2023-02-25T19:17:26.549Z,100.00
2023-02-25T19:19:54.435Z,100.00
2023-02-25T19:22:23.316Z,100.00
2023-02-25T19:24:51.745Z,100.00
2023-02-25T19:27:22.099Z,100.00
2023-02-25T19:29:50.413Z,100.00
2023-02-25T19:32:18.568Z,100.00
2023-02-25T19:34:48.004Z,100.00
2023-02-25T19:37:17.238Z,100.00
2023-02-25T19:39:45.648Z,100.00
2023-02-25T19:42:13.915Z,100.00
2023-02-25T19:44:41.977Z,100.00
2023-02-25T19:47:10.054Z,100.00
2023-02-25T19:49:38.061Z,100.00
2023-02-25T19:52:07.487Z,100.00
2023-02-25T19:54:35.729Z,100.00
2023-02-25T19:57:04.603Z,100.00
2023-02-25T19:59:32.597Z,100.00
2023-02-25T20:02:01.038Z,100.00
2023-02-25T20:04:29.169Z,100.00
2023-02-25T20:06:57.065Z,100.00
2023-02-25T20:09:26.930Z,100.00
2023-02-25T20:11:55.412Z,100.00
2023-02-25T20:14:24.039Z,100.00
2023-02-25T20:16:52.325Z,100.00
2023-02-25T20:19:20.365Z,100.00
2023-02-25T20:21:48.555Z,100.00
2023-02-25T20:24:16.535Z,100.00
2023-02-25T20:26:46.633Z,100.00
2023-02-25T20:29:14.660Z,100.00
2023-02-25T20:31:43.015Z,100.00
2023-02-25T20:34:12.810Z,100.00
2023-02-25T20:36:42.456Z,100.00
2023-02-25T20:39:33.603Z,100.00
2023-02-25T20:42:04.496Z,100.00
2023-02-25T20:44:32.761Z,100.00
2023-02-25T20:47:01.472Z,100.00
2023-02-25T20:49:29.693Z,100.00
2023-02-25T20:51:58.354Z,100.00
2023-02-25T20:54:26.339Z,100.00
2023-02-25T20:56:54.277Z,100.00
2023-02-25T20:59:23.678Z,100.00
2023-02-25T21:01:51.967Z,100.00
2023-02-25T21:04:20.005Z,100.00
2023-02-25T21:06:48.349Z,100.00
2023-02-25T21:09:16.309Z,100.00
2023-02-25T21:11:44.303Z,100.00
2023-02-25T21:14:12.294Z,100.00
2023-02-25T21:16:41.607Z,100.00
2023-02-25T21:19:09.597Z,100.00
2023-02-25T21:21:38.075Z,100.00
2023-02-25T21:24:06.366Z,100.00
2023-02-25T21:26:34.475Z,100.00
2023-02-25T21:29:02.638Z,100.00
2023-02-25T21:31:30.636Z,100.00
2023-02-25T21:34:01.835Z,100.00
2023-02-25T21:36:29.971Z,100.00
2023-02-25T21:38:57.916Z,100.00
2023-02-25T21:41:25.811Z,100.00
2023-02-25T21:43:53.761Z,100.00
2023-02-25T21:46:21.767Z,100.00
2023-02-25T21:48:53.213Z,100.00
2023-02-25T21:51:24.807Z,100.00
2023-02-25T21:53:55.208Z,100.00
2023-02-25T21:56:23.622Z,100.00
2023-02-25T21:58:54.394Z,100.00
2023-02-25T22:01:23.423Z,100.00
2023-02-25T22:03:51.460Z,100.00
2023-02-25T22:06:19.473Z,100.00
2023-02-25T22:08:48.810Z,100.00
2023-02-25T22:11:18.423Z,100.00
2023-02-25T22:13:46.361Z,100.00
2023-02-25T22:16:15.040Z,100.00
2023-02-25T22:18:43.218Z,100.00
2023-02-25T22:21:13.160Z,100.00
2023-02-25T22:23:41.392Z,100.00
2023-02-25T22:26:15.465Z,100.00
2023-02-25T22:28:46.471Z,100.00
2023-02-25T22:31:16.054Z,100.00
2023-02-25T22:33:44.273Z,100.00
2023-02-25T22:36:12.516Z,100.00
2023-02-25T22:38:44.075Z,100.00
2023-02-25T22:41:14.781Z,100.00
2023-02-25T22:43:42.904Z,100.00
2023-02-25T22:46:11.880Z,100.00
2023-02-25T22:48:40.741Z,100.00
2023-02-25T22:51:09.319Z,100.00
2023-02-25T22:53:37.455Z,100.00
2023-02-25T22:56:07.091Z,100.00
2023-02-25T22:58:38.943Z,100.00
2023-02-25T23:01:08.294Z,100.00
2023-02-25T23:03:36.270Z,100.00
2023-02-25T23:06:04.792Z,100.00
2023-02-25T23:08:32.956Z,100.00
2023-02-25T23:11:09.046Z,100.00
2023-02-25T23:13:46.612Z,100.00
2023-02-25T23:16:15.408Z,100.00
2023-02-25T23:18:43.351Z,100.00
2023-02-25T23:21:16.388Z,100.00
2023-02-25T23:23:45.203Z,100.00
2023-02-25T23:26:13.856Z,100.00
2023-02-25T23:28:43.208Z,100.00
2023-02-25T23:31:20.123Z,100.00
2023-02-25T23:33:48.305Z,100.00
2023-02-25T23:36:16.420Z,100.00
2023-02-25T23:38:44.349Z,100.00
2023-02-25T23:41:12.717Z,100.00
2023-02-25T23:43:41.994Z,100.00
2023-02-25T23:46:10.076Z,100.00
2023-02-25T23:48:38.429Z,100.00
2023-02-25T23:51:07.084Z,100.00
2023-02-25T23:53:35.396Z,100.00
2023-02-25T23:56:07.122Z,100.00
2023-02-25T23:58:35.084Z,100.00
